Time;durP1;ratioP1;P1;durP2;ratioP2;P2;SDS_P1;SDS_P2;PMS_P1;PMS_P2;Temp;Humidity;BMP_temperature;BMP_pressure;BME280_temperature;BME280_humidity;BME280_pressure;Samples;Min_cycle;Max_cycle;Signal;HPM_P1;HPM_P2
2022/09/10 00:01:07;;;;;;;9.55;5.45;;;15.20;99.90;;;;;;4147921;28;20072;-83
2022/09/10 00:03:08;;;;;;;10.52;4.93;;;15.10;99.90;;;;;;4147911;28;20054;-83
2022/09/10 00:05:11;;;;;;;12.60;6.35;;;15.20;99.90;;;;;;4130078;28;20050;-83
2022/09/10 00:07:11;;;;;;;9.90;5.35;;;15.20;99.90;;;;;;4147839;28;20484;-83
2022/09/10 00:09:13;;;;;;;8.60;5.43;;;15.10;99.90;;;;;;4147521;28;20129;-84
2022/09/10 00:11:14;;;;;;;10.75;5.32;;;15.20;99.90;;;;;;4147689;28;20052;-83
2022/09/10 00:13:17;;;;;;;8.63;5.10;;;15.20;99.90;;;;;;4147771;28;20068;-83
2022/09/10 00:15:19;;;;;;;8.85;5.25;;;15.20;99.90;;;;;;4147330;28;20053;-83
2022/09/10 00:17:20;;;;;;;10.30;4.80;;;15.20;99.90;;;;;;4130034;28;20477;-83
2022/09/10 00:19:21;;;;;;;6.55;4.70;;;15.20;99.90;;;;;;4147668;28;20034;-83
2022/09/10 00:21:21;;;;;;;10.10;5.72;;;15.20;99.90;;;;;;4147651;28;20057;-83
2022/09/10 00:23:25;;;;;;;9.52;5.30;;;15.20;99.90;;;;;;4147624;28;20061;-83
2022/09/10 00:25:31;;;;;;;13.93;6.25;;;15.20;99.90;;;;;;4147010;28;20046;-83
2022/09/10 00:27:32;;;;;;;9.75;4.90;;;15.20;99.90;;;;;;4147711;28;20054;-83
2022/09/10 00:29:33;;;;;;;9.32;5.88;;;15.20;99.90;;;;;;4147644;28;20050;-83
2022/09/10 00:31:36;;;;;;;9.65;5.50;;;15.20;99.90;;;;;;4147600;28;20053;-83
2022/09/10 00:33:36;;;;;;;10.23;6.18;;;15.20;99.90;;;;;;4146973;28;20089;-83
2022/09/10 00:35:38;;;;;;;14.15;5.57;;;15.20;99.90;;;;;;4147593;28;20499;-83
2022/09/10 00:37:39;;;;;;;10.50;6.15;;;15.20;99.90;;;;;;4147570;28;20057;-83
2022/09/10 00:39:40;;;;;;;9.43;6.03;;;15.20;99.90;;;;;;4147298;28;20112;-83
2022/09/10 00:41:43;;;;;;;8.43;5.40;;;15.20;99.90;;;;;;4147501;28;20045;-83
2022/09/10 00:43:48;;;;;;;11.77;6.13;;;15.20;99.90;;;;;;4147220;28;20057;-83
2022/09/10 00:45:53;;;;;;;9.18;6.40;;;15.20;99.90;;;;;;4146691;28;20049;-83
2022/09/10 00:48:02;;;;;;;13.77;6.22;;;15.20;99.90;;;;;;4147148;28;20049;-83
2022/09/10 00:50:18;;;;;;;11.50;7.03;;;15.20;99.90;;;;;;4147113;28;20042;-83
2022/09/10 00:52:19;;;;;;;10.35;6.13;;;15.20;99.90;;;;;;4147110;28;20161;-83
2022/09/10 00:54:24;;;;;;;11.13;5.72;;;15.20;99.90;;;;;;4146968;28;20042;-83
2022/09/10 00:56:27;;;;;;;8.52;6.00;;;15.20;99.90;;;;;;4147374;28;20038;-83
2022/09/10 00:58:28;;;;;;;11.95;6.65;;;15.20;99.90;;;;;;4147380;28;20129;-84
2022/09/10 01:00:30;;;;;;;13.23;6.45;;;15.20;99.90;;;;;;4147217;28;20046;-83
2022/09/10 01:02:31;;;;;;;10.85;6.38;;;15.20;99.90;;;;;;4147479;28;20542;-83
2022/09/10 01:04:32;;;;;;;12.10;6.78;;;15.20;99.90;;;;;;4147335;28;20184;-83
2022/09/10 01:06:32;;;;;;;15.23;7.32;;;15.20;99.90;;;;;;4146689;28;20053;-83
2022/09/10 01:08:33;;;;;;;13.77;6.85;;;15.20;99.90;;;;;;4147298;28;20038;-83
2022/09/10 01:10:46;;;;;;;12.73;7.43;;;15.10;99.90;;;;;;4147328;28;20046;-84
2022/09/10 01:13:07;;;;;;;11.77;6.95;;;15.10;99.90;;;;;;4147029;28;20097;-83
2022/09/10 01:15:29;;;;;;;11.20;6.43;;;15.10;99.90;;;;;;4147068;28;20057;-83
2022/09/10 01:17:35;;;;;;;12.05;6.55;;;15.10;99.90;;;;;;4146705;28;20054;-83
2022/09/10 01:19:57;;;;;;;14.82;6.90;;;15.10;99.90;;;;;;4146409;28;20069;-83
2022/09/10 01:22:03;;;;;;;14.23;6.90;;;15.10;99.90;;;;;;4147120;28;20072;-83
2022/09/10 01:24:34;;;;;;;12.80;7.05;;;15.20;99.90;;;;;;4147664;28;20050;-83
2022/09/10 01:26:46;;;;;;;13.27;6.78;;;15.20;99.90;;;;;;4150210;28;20049;-83
2022/09/10 01:28:59;;;;;;;14.35;6.93;;;15.20;99.90;;;;;;4132511;28;20058;-83
2022/09/10 01:31:10;;;;;;;14.75;6.90;;;15.20;99.90;;;;;;4150048;28;20483;-83
2022/09/10 01:33:14;;;;;;;13.20;7.07;;;15.20;99.90;;;;;;4149746;28;20491;-84
2022/09/10 01:35:23;;;;;;;14.13;7.00;;;15.20;99.90;;;;;;4149931;28;20057;-84
2022/09/10 01:37:30;;;;;;;10.80;6.43;;;15.20;99.90;;;;;;4149467;28;20050;-84
2022/09/10 01:39:32;;;;;;;10.90;7.55;;;15.20;99.90;;;;;;4148100;28;20041;-84
2022/09/10 01:41:33;;;;;;;14.45;7.72;;;15.20;99.90;;;;;;4148378;28;20502;-84
2022/09/10 01:43:34;;;;;;;12.23;7.45;;;15.20;99.90;;;;;;4149083;28;20125;-84
2022/09/10 01:46:20;;;;;;;13.85;7.75;;;15.20;99.90;;;;;;4147948;28;20058;-83
2022/09/10 01:49:02;;;;;;;12.25;6.97;;;15.20;99.90;;;;;;4099315;29;20147;-84
2022/09/10 01:51:28;;;;;;;15.65;8.15;;;15.20;99.90;;;;;;4123445;28;20427;-83
2022/09/10 01:53:40;;;;;;;11.88;7.22;;;15.20;99.90;;;;;;4149577;28;20054;-83
2022/09/10 01:55:54;;;;;;;13.15;7.78;;;15.20;99.90;;;;;;4149739;28;20049;-83
2022/09/10 01:58:09;;;;;;;13.68;7.28;;;15.20;99.90;;;;;;4149552;28;20049;-83
2022/09/10 02:00:13;;;;;;;13.02;6.72;;;15.20;99.90;;;;;;4149865;28;20042;-83
2022/09/10 02:02:31;;;;;;;13.57;7.78;;;15.20;99.90;;;;;;4150022;28;20050;-84
2022/09/10 02:04:34;;;;;;;11.82;7.13;;;15.20;99.90;;;;;;4148844;28;20176;-83
2022/09/10 02:06:41;;;;;;;11.45;7.15;;;15.20;99.90;;;;;;4149481;28;20042;-83
2022/09/10 02:08:44;;;;;;;11.27;7.18;;;15.20;99.90;;;;;;4149514;28;20038;-83
2022/09/10 02:10:54;;;;;;;12.43;8.30;;;15.20;99.90;;;;;;4149549;28;20046;-83
2022/09/10 02:12:55;;;;;;;15.07;8.32;;;15.20;99.90;;;;;;4149505;28;20054;-83
2022/09/10 02:14:57;;;;;;;14.45;9.32;;;15.20;99.90;;;;;;4149568;28;20103;-83
2022/09/10 02:16:59;;;;;;;14.68;8.80;;;15.20;99.90;;;;;;4149432;28;20057;-83
2022/09/10 02:19:01;;;;;;;13.10;7.75;;;15.20;99.90;;;;;;4148948;28;20048;-83
2022/09/10 02:21:02;;;;;;;16.35;9.77;;;15.20;99.90;;;;;;4149233;28;20108;-84
2022/09/10 02:23:05;;;;;;;18.58;8.50;;;15.20;99.90;;;;;;4149400;28;20050;-83
2022/09/10 02:25:06;;;;;;;14.85;9.15;;;15.20;99.90;;;;;;4131964;28;20611;-84
2022/09/10 02:27:07;;;;;;;18.20;9.18;;;15.20;99.90;;;;;;4148754;28;20591;-84
2022/09/10 02:29:09;;;;;;;17.83;9.52;;;15.20;99.90;;;;;;4149291;28;20089;-84
2022/09/10 02:31:11;;;;;;;19.48;9.93;;;15.10;99.90;;;;;;4131637;28;20046;-84
2022/09/10 02:33:15;;;;;;;18.20;11.23;;;15.10;99.90;;;;;;4149205;28;20488;-84
2022/09/10 02:35:16;;;;;;;20.90;10.55;;;15.10;99.90;;;;;;4148270;28;20041;-83
2022/09/10 02:37:17;;;;;;;20.35;10.38;;;15.10;99.90;;;;;;4148186;28;20052;-84
2022/09/10 02:39:18;;;;;;;20.73;10.75;;;15.10;99.90;;;;;;4148870;28;20050;-83
2022/09/10 02:41:21;;;;;;;19.77;11.05;;;15.10;99.90;;;;;;4131449;28;20500;-83
2022/09/10 02:43:22;;;;;;;19.33;11.77;;;15.10;99.90;;;;;;4148989;28;20041;-83
2022/09/10 02:45:23;;;;;;;27.60;11.90;;;15.00;99.90;;;;;;4131209;28;20100;-84
2022/09/10 02:47:25;;;;;;;22.73;11.57;;;15.10;99.90;;;;;;4148909;28;20050;-83
2022/09/10 02:49:27;;;;;;;22.20;11.00;;;15.10;99.90;;;;;;4131567;28;20050;-84
2022/09/10 02:51:27;;;;;;;29.33;12.88;;;15.00;99.90;;;;;;4131013;28;20090;-84
2022/09/10 02:53:30;;;;;;;22.88;12.13;;;15.10;99.90;;;;;;4148791;28;20115;-83
2022/09/10 02:55:31;;;;;;;22.08;11.50;;;15.10;99.90;;;;;;4148933;28;20046;-83
2022/09/10 02:57:31;;;;;;;34.28;11.27;;;15.00;99.90;;;;;;4148687;28;20056;-83
2022/09/10 02:59:32;;;;;;;24.83;12.23;;;15.10;99.90;;;;;;4130841;28;20054;-83
2022/09/10 03:01:34;;;;;;;25.80;12.35;;;15.10;99.90;;;;;;4149055;28;20096;-83
2022/09/10 03:03:35;;;;;;;25.70;12.15;;;15.10;99.90;;;;;;4148739;28;20042;-84
2022/09/10 03:05:37;;;;;;;28.27;13.15;;;15.10;99.90;;;;;;4131123;28;20181;-83
2022/09/10 03:07:38;;;;;;;29.92;12.60;;;15.10;99.90;;;;;;4130503;28;20085;-83
2022/09/10 03:09:39;;;;;;;22.37;12.23;;;15.10;99.90;;;;;;4148573;28;20046;-83
2022/09/10 03:11:40;;;;;;;25.17;12.50;;;15.10;99.90;;;;;;4130401;28;20047;-83
2022/09/10 03:13:42;;;;;;;25.95;13.13;;;15.10;99.90;;;;;;4147998;28;20077;-83
2022/09/10 03:15:42;;;;;;;27.67;13.32;;;15.00;99.90;;;;;;4148019;28;20053;-83
2022/09/10 03:17:44;;;;;;;29.98;14.30;;;15.10;99.90;;;;;;4147365;28;20041;-83
2022/09/10 03:19:45;;;;;;;23.88;12.65;;;15.10;99.90;;;;;;4148012;28;20107;-83
2022/09/10 03:21:46;;;;;;;25.30;13.50;;;15.10;99.90;;;;;;4147954;28;20061;-83
2022/09/10 03:23:49;;;;;;;26.55;13.77;;;15.10;99.90;;;;;;4148036;28;20053;-83
2022/09/10 03:25:50;;;;;;;26.00;12.55;;;15.10;99.90;;;;;;4147280;28;20510;-83
2022/09/10 03:27:51;;;;;;;25.45;13.38;;;15.10;99.90;;;;;;4147611;28;20125;-83
2022/09/10 03:29:51;;;;;;;27.33;13.00;;;15.10;99.90;;;;;;4147513;28;20038;-83
2022/09/10 03:31:53;;;;;;;28.63;13.70;;;15.10;99.90;;;;;;4147769;28;20454;-83
2022/09/10 03:33:54;;;;;;;26.38;13.98;;;15.00;99.90;;;;;;4147501;28;20042;-83
2022/09/10 03:35:54;;;;;;;23.83;13.38;;;15.00;99.90;;;;;;4147797;28;20444;-83
2022/09/10 03:37:55;;;;;;;28.88;14.18;;;15.10;99.90;;;;;;4147172;28;20045;-83
2022/09/10 03:39:57;;;;;;;28.25;13.65;;;15.10;99.90;;;;;;4147504;28;20045;-83
2022/09/10 03:41:58;;;;;;;28.48;13.43;;;15.10;99.90;;;;;;4147624;28;20100;-83
2022/09/10 03:43:58;;;;;;;24.58;14.23;;;15.10;99.90;;;;;;4147209;28;20042;-83
2022/09/10 03:45:59;;;;;;;29.73;14.10;;;15.10;99.90;;;;;;4147188;28;20588;-83
2022/09/10 03:47:59;;;;;;;23.63;13.38;;;15.10;99.90;;;;;;4147293;28;20053;-83
2022/09/10 03:50:01;;;;;;;25.15;13.52;;;15.10;99.90;;;;;;4147458;28;20046;-83
2022/09/10 03:52:01;;;;;;;29.77;14.45;;;15.10;99.90;;;;;;4147074;28;20073;-84
2022/09/10 03:54:02;;;;;;;32.95;13.93;;;15.10;99.90;;;;;;4146301;28;20100;-83
2022/09/10 03:56:03;;;;;;;26.92;14.82;;;15.10;99.90;;;;;;4147806;28;20050;-83
2022/09/10 03:58:05;;;;;;;27.60;14.95;;;15.10;99.90;;;;;;4147950;28;20480;-84
2022/09/10 04:00:07;;;;;;;30.55;14.77;;;15.10;99.90;;;;;;4130531;28;20049;-84
2022/09/10 04:02:08;;;;;;;28.70;14.90;;;15.10;99.90;;;;;;4130136;28;20060;-83
2022/09/10 04:04:09;;;;;;;30.13;15.05;;;15.10;99.90;;;;;;4146773;28;20160;-83
2022/09/10 04:06:11;;;;;;;29.92;13.98;;;15.10;99.90;;;;;;4147301;28;20045;-84
2022/09/10 04:08:13;;;;;;;29.83;14.63;;;15.10;99.90;;;;;;4146947;28;20049;-83
2022/09/10 04:10:13;;;;;;;31.45;15.40;;;15.10;99.90;;;;;;4146960;28;20484;-83
2022/09/10 04:12:15;;;;;;;35.55;15.07;;;15.10;99.90;;;;;;4147494;28;20778;-83
2022/09/10 04:14:16;;;;;;;28.80;14.32;;;15.10;99.90;;;;;;4146611;28;20089;-83
2022/09/10 04:16:17;;;;;;;33.58;15.82;;;15.10;99.90;;;;;;4147181;28;20419;-83
2022/09/10 04:18:17;;;;;;;28.15;14.52;;;15.10;99.90;;;;;;4146926;28;20100;-83
2022/09/10 04:20:19;;;;;;;30.27;14.32;;;15.10;99.90;;;;;;4130025;28;20480;-83
2022/09/10 04:22:21;;;;;;;33.78;15.57;;;15.10;99.90;;;;;;4147753;28;20069;-83
2022/09/10 04:24:22;;;;;;;32.60;15.27;;;15.10;99.90;;;;;;4147652;28;20046;-83
2022/09/10 04:26:22;;;;;;;32.75;15.27;;;15.10;99.90;;;;;;4147677;28;20068;-84
2022/09/10 04:28:23;;;;;;;31.83;14.68;;;15.10;99.90;;;;;;4147115;28;20133;-83
2022/09/10 04:30:25;;;;;;;32.40;15.63;;;15.10;99.90;;;;;;4147527;28;20135;-83
2022/09/10 04:32:25;;;;;;;32.10;14.02;;;15.10;99.90;;;;;;4147376;28;20057;-83
2022/09/10 04:34:26;;;;;;;33.95;15.77;;;15.10;99.90;;;;;;4147584;28;20411;-83
2022/09/10 04:36:27;;;;;;;28.13;15.23;;;15.10;99.90;;;;;;4147677;28;20077;-83
2022/09/10 04:38:31;;;;;;;34.63;15.38;;;15.10;99.90;;;;;;4146865;28;20050;-83
2022/09/10 04:40:33;;;;;;;31.60;15.73;;;15.10;99.90;;;;;;4147531;28;20116;-83
2022/09/10 04:42:34;;;;;;;34.88;15.00;;;15.10;99.90;;;;;;4147573;28;20034;-83
2022/09/10 04:44:34;;;;;;;35.00;16.13;;;15.10;99.90;;;;;;4146958;28;20068;-83
2022/09/10 04:46:35;;;;;;;30.45;14.82;;;15.10;99.90;;;;;;4147594;28;20078;-83
2022/09/10 04:48:36;;;;;;;36.08;16.88;;;15.10;99.90;;;;;;4147049;28;20038;-84
2022/09/10 04:50:38;;;;;;;33.00;15.88;;;15.10;99.90;;;;;;4128812;28;20050;-83
2022/09/10 04:52:40;;;;;;;34.45;15.88;;;15.10;99.90;;;;;;4147291;28;20041;-84
2022/09/10 04:54:40;;;;;;;36.47;16.83;;;15.10;99.90;;;;;;4147350;28;20440;-84
2022/09/10 04:56:42;;;;;;;32.67;15.95;;;15.10;99.90;;;;;;4147344;28;20045;-83
2022/09/10 04:58:43;;;;;;;31.17;15.98;;;15.10;99.90;;;;;;4130033;28;20050;-84
2022/09/10 05:00:43;;;;;;;36.38;16.45;;;15.10;99.90;;;;;;4150057;28;20045;-84
2022/09/10 05:02:45;;;;;;;34.95;16.40;;;15.10;99.90;;;;;;4150242;28;20065;-83
2022/09/10 05:04:45;;;;;;;37.00;17.48;;;15.10;99.90;;;;;;4150181;28;20121;-84
2022/09/10 05:06:49;;;;;;;35.30;17.05;;;15.20;99.90;;;;;;4150246;28;20084;-83
2022/09/10 05:08:49;;;;;;;34.78;16.45;;;15.10;99.90;;;;;;4150128;28;20453;-84
2022/09/10 05:10:50;;;;;;;35.63;16.67;;;15.10;99.90;;;;;;4149777;28;20042;-83
2022/09/10 05:12:51;;;;;;;33.38;15.75;;;15.20;99.90;;;;;;4150464;28;20042;-84
2022/09/10 05:14:51;;;;;;;27.17;14.38;;;15.20;99.90;;;;;;4150121;28;20137;-84
2022/09/10 05:16:52;;;;;;;29.15;13.57;;;15.20;99.90;;;;;;4150440;28;20116;-84
2022/09/10 05:18:53;;;;;;;31.48;14.93;;;15.20;99.90;;;;;;4132803;28;20538;-83
2022/09/10 05:20:54;;;;;;;32.65;14.90;;;15.20;99.90;;;;;;4151257;28;20138;-83
2022/09/10 05:22:55;;;;;;;34.70;14.40;;;15.20;99.90;;;;;;4149679;28;20096;-83
2022/09/10 05:24:55;;;;;;;29.90;14.75;;;15.20;99.90;;;;;;4149969;28;20053;-83
2022/09/10 05:26:56;;;;;;;35.05;15.43;;;15.20;99.90;;;;;;4150029;28;20046;-83
2022/09/10 05:28:58;;;;;;;30.83;14.60;;;15.20;99.90;;;;;;4149887;28;20042;-83
2022/09/10 05:30:59;;;;;;;34.50;15.40;;;15.20;99.90;;;;;;4150059;28;20042;-83
2022/09/10 05:33:01;;;;;;;29.55;15.48;;;15.20;99.90;;;;;;4149834;28;20157;-83
2022/09/10 05:35:01;;;;;;;27.77;13.80;;;15.20;99.90;;;;;;4149851;28;20081;-84
2022/09/10 05:37:02;;;;;;;27.63;13.73;;;15.30;99.90;;;;;;4149943;28;20050;-83
2022/09/10 05:39:03;;;;;;;23.90;12.13;;;15.30;99.90;;;;;;4132543;28;20047;-83
2022/09/10 05:41:07;;;;;;;31.83;14.35;;;15.30;99.90;;;;;;4132056;28;20133;-83
2022/09/10 05:43:09;;;;;;;27.30;12.77;;;15.30;99.90;;;;;;4148770;28;20499;-83
2022/09/10 05:45:09;;;;;;;27.58;13.27;;;15.30;99.90;;;;;;4148467;28;20046;-83
2022/09/10 05:47:10;;;;;;;28.38;14.10;;;15.40;99.90;;;;;;4149787;28;20050;-83
2022/09/10 05:49:11;;;;;;;31.17;14.55;;;15.40;99.90;;;;;;4149747;28;20041;-83
2022/09/10 05:51:12;;;;;;;33.30;14.95;;;15.40;99.90;;;;;;4149555;28;20038;-83
2022/09/10 05:53:13;;;;;;;30.33;14.27;;;15.50;99.90;;;;;;4132157;28;20574;-83
2022/09/10 05:55:13;;;;;;;34.30;14.57;;;15.50;99.90;;;;;;4149314;28;20074;-83
2022/09/10 05:57:14;;;;;;;22.83;13.25;;;15.50;99.90;;;;;;4149537;28;20042;-83
2022/09/10 05:59:15;;;;;;;30.75;15.15;;;15.50;99.90;;;;;;4149477;28;20068;-84
2022/09/10 06:01:16;;;;;;;26.88;13.55;;;15.50;99.90;;;;;;4149608;28;20392;-83
2022/09/10 06:03:18;;;;;;;28.33;12.98;;;15.50;99.90;;;;;;4149160;28;20499;-83
2022/09/10 06:05:21;;;;;;;28.17;13.18;;;15.50;99.90;;;;;;4149646;28;20038;-83
2022/09/10 06:07:22;;;;;;;31.70;13.65;;;15.50;99.90;;;;;;4147412;28;20038;-83
2022/09/10 06:09:23;;;;;;;26.67;13.40;;;15.50;99.90;;;;;;4148621;28;20377;-84
2022/09/10 06:11:24;;;;;;;23.63;12.35;;;15.50;99.90;;;;;;4148053;28;20049;-84
2022/09/10 06:13:26;;;;;;;27.95;14.00;;;15.50;99.90;;;;;;4149095;28;20046;-84
2022/09/10 06:15:26;;;;;;;23.40;12.35;;;15.50;99.90;;;;;;4147640;28;20100;-83
2022/09/10 06:17:27;;;;;;;27.73;13.43;;;15.50;99.90;;;;;;4148524;28;20471;-84
2022/09/10 06:19:28;;;;;;;22.75;12.13;;;15.60;99.90;;;;;;4149332;28;20076;-83
2022/09/10 06:21:29;;;;;;;22.77;11.90;;;15.60;99.90;;;;;;4149283;28;20099;-83
2022/09/10 06:23:30;;;;;;;27.17;12.43;;;15.70;99.90;;;;;;4148938;28;20046;-83
2022/09/10 06:25:31;;;;;;;21.63;12.70;;;15.70;99.90;;;;;;4149294;28;20053;-84
2022/09/10 06:27:32;;;;;;;22.58;11.65;;;15.80;99.90;;;;;;4149139;28;20091;-83
2022/09/10 06:29:35;;;;;;;26.38;12.75;;;15.70;99.90;;;;;;4149138;28;20045;-83
2022/09/10 06:31:36;;;;;;;19.52;11.00;;;15.80;99.90;;;;;;4149307;28;20176;-83
2022/09/10 06:33:37;;;;;;;22.30;11.73;;;15.80;99.90;;;;;;4148324;28;20050;-83
2022/09/10 06:35:37;;;;;;;22.98;12.10;;;15.90;99.90;;;;;;4131262;28;20775;-83
2022/09/10 06:37:39;;;;;;;23.35;11.55;;;15.90;99.90;;;;;;4148572;28;20414;-83
2022/09/10 06:39:40;;;;;;;22.85;11.48;;;15.90;99.90;;;;;;4148480;28;20053;-83
2022/09/10 06:41:41;;;;;;;20.40;11.35;;;15.90;99.90;;;;;;4148568;28;20038;-83
2022/09/10 06:43:42;;;;;;;24.02;11.30;;;15.90;99.90;;;;;;4148067;28;20577;-83
2022/09/10 06:45:43;;;;;;;21.45;11.50;;;16.00;99.90;;;;;;4148421;28;20058;-83
2022/09/10 06:47:43;;;;;;;22.23;10.95;;;15.90;99.90;;;;;;4148270;28;20129;-83
2022/09/10 06:49:44;;;;;;;22.27;11.43;;;15.90;99.90;;;;;;4130767;28;20129;-84
2022/09/10 06:51:44;;;;;;;22.75;11.63;;;15.90;99.90;;;;;;4148317;28;20407;-84
2022/09/10 06:53:45;;;;;;;21.58;11.30;;;16.00;99.90;;;;;;4148325;28;20046;-84
2022/09/10 06:55:47;;;;;;;22.10;12.05;;;16.00;99.90;;;;;;4148458;28;20050;-84
2022/09/10 06:57:48;;;;;;;23.20;11.50;;;16.00;99.90;;;;;;4148062;28;20041;-84
2022/09/10 06:59:48;;;;;;;24.95;11.25;;;15.90;99.90;;;;;;4148840;28;20042;-84
2022/09/10 07:01:49;;;;;;;30.88;11.82;;;15.90;99.90;;;;;;4131746;28;20050;-83
2022/09/10 07:03:58;;;;;;;21.80;10.88;;;15.90;99.90;;;;;;4148791;28;20042;-83
2022/09/10 07:06:06;;;;;;;22.40;12.63;;;15.90;99.90;;;;;;4148743;28;20050;-83
2022/09/10 07:08:07;;;;;;;20.30;12.07;;;15.90;99.90;;;;;;4148384;28;20061;-83
2022/09/10 07:10:08;;;;;;;24.25;11.15;;;16.00;99.90;;;;;;4148475;28;20050;-84
2022/09/10 07:12:08;;;;;;;21.73;11.48;;;16.00;99.90;;;;;;4148797;28;20046;-84
2022/09/10 07:14:11;;;;;;;23.15;11.93;;;16.00;99.90;;;;;;4148916;28;20046;-83
2022/09/10 07:16:16;;;;;;;21.80;10.98;;;16.00;99.90;;;;;;4131201;28;20483;-84
2022/09/10 07:18:17;;;;;;;23.17;11.73;;;16.00;99.90;;;;;;4149024;28;20042;-83
2022/09/10 07:20:17;;;;;;;22.63;11.30;;;16.00;99.90;;;;;;4148794;28;20522;-83
2022/09/10 07:22:18;;;;;;;18.85;11.05;;;16.10;99.90;;;;;;4148425;28;20053;-84
2022/09/10 07:24:20;;;;;;;22.10;11.20;;;16.10;99.90;;;;;;4149533;28;20431;-84
2022/09/10 07:26:20;;;;;;;23.02;11.82;;;16.10;99.90;;;;;;4131899;28;20046;-83
2022/09/10 07:28:21;;;;;;;23.60;11.15;;;16.10;99.90;;;;;;4150357;28;20052;-84
2022/09/10 07:30:22;;;;;;;19.90;11.63;;;16.10;99.90;;;;;;4150199;28;20128;-83
2022/09/10 07:32:22;;;;;;;22.63;11.02;;;16.10;99.90;;;;;;4152035;28;20041;-84
2022/09/10 07:34:23;;;;;;;21.35;10.77;;;16.10;99.90;;;;;;4153781;28;20068;-83
2022/09/10 07:36:24;;;;;;;23.85;12.00;;;16.10;99.90;;;;;;4153061;28;20111;-83
2022/09/10 07:38:25;;;;;;;20.33;11.18;;;16.10;99.90;;;;;;4153523;28;20045;-84
2022/09/10 07:40:27;;;;;;;22.70;11.02;;;16.10;99.90;;;;;;4153015;28;20419;-83
2022/09/10 07:42:28;;;;;;;24.80;11.15;;;16.20;99.90;;;;;;4152501;28;20073;-84
2022/09/10 07:44:28;;;;;;;25.38;11.82;;;16.20;99.90;;;;;;4151723;28;20528;-83
2022/09/10 07:46:29;;;;;;;26.00;11.45;;;16.20;99.90;;;;;;4154382;28;20061;-83
2022/09/10 07:48:30;;;;;;;22.88;11.55;;;16.10;99.90;;;;;;4152759;28;20050;-84
2022/09/10 07:50:30;;;;;;;25.98;11.23;;;16.10;99.90;;;;;;4150928;28;20049;-84
2022/09/10 07:52:32;;;;;;;23.77;12.32;;;16.20;99.90;;;;;;4150543;28;20046;-84
2022/09/10 07:54:32;;;;;;;27.13;11.70;;;16.10;99.90;;;;;;4150639;28;20515;-83
2022/09/10 07:56:33;;;;;;;24.63;11.88;;;16.10;99.90;;;;;;4134513;28;20046;-83
2022/09/10 07:58:36;;;;;;;24.38;11.50;;;16.20;99.90;;;;;;4148633;28;20046;-84
2022/09/10 08:00:38;;;;;;;22.90;11.18;;;16.20;99.90;;;;;;4147563;28;20054;-84
2022/09/10 08:02:40;;;;;;;25.38;11.45;;;16.20;99.90;;;;;;4130558;28;20081;-84
2022/09/10 08:04:41;;;;;;;24.92;11.98;;;16.20;99.90;;;;;;4130390;28;20536;-84
2022/09/10 08:06:42;;;;;;;25.63;11.30;;;16.20;99.90;;;;;;4130437;28;20125;-84
2022/09/10 08:08:43;;;;;;;21.77;11.13;;;16.20;99.90;;;;;;4129788;28;20053;-84
2022/09/10 08:10:44;;;;;;;23.63;11.50;;;16.20;99.90;;;;;;4147742;28;20042;-84
2022/09/10 08:12:45;;;;;;;19.95;10.88;;;16.20;99.90;;;;;;4147867;28;20081;-83
2022/09/10 08:14:46;;;;;;;27.90;12.68;;;16.20;99.90;;;;;;4147926;28;20045;-83
2022/09/10 08:16:46;;;;;;;22.73;11.02;;;16.20;99.90;;;;;;4147813;28;20499;-83
2022/09/10 08:18:48;;;;;;;21.67;10.85;;;16.30;99.90;;;;;;4129969;28;20174;-83
2022/09/10 08:20:54;;;;;;;20.08;11.50;;;16.20;99.90;;;;;;4147636;28;20052;-84
2022/09/10 08:22:56;;;;;;;23.25;11.30;;;16.30;99.90;;;;;;4146251;28;20109;-84
2022/09/10 08:24:57;;;;;;;24.08;11.60;;;16.30;99.90;;;;;;4146176;28;20590;-83
2022/09/10 08:26:58;;;;;;;25.48;11.45;;;16.30;99.90;;;;;;4147649;28;20103;-83
2022/09/10 08:29:01;;;;;;;25.38;11.82;;;16.30;99.90;;;;;;4147411;28;20078;-83
2022/09/10 08:31:06;;;;;;;21.95;11.55;;;16.30;99.90;;;;;;4147597;28;20236;-83
2022/09/10 08:33:07;;;;;;;21.52;9.93;;;16.30;99.90;;;;;;4130354;28;20073;-83
2022/09/10 08:35:07;;;;;;;18.88;10.80;;;16.40;99.90;;;;;;4132471;28;20058;-83
2022/09/10 08:37:08;;;;;;;19.15;10.98;;;16.40;99.90;;;;;;4150906;28;20046;-83
2022/09/10 08:39:09;;;;;;;22.02;10.82;;;16.40;99.90;;;;;;4150916;28;20049;-83
2022/09/10 08:41:38;;;;;;;23.13;11.02;;;16.40;99.90;;;;;;4150742;28;20042;-83
2022/09/10 08:43:56;;;;;;;21.23;10.93;;;16.50;99.90;;;;;;4150056;28;20049;-83
2022/09/10 08:46:00;;;;;;;20.67;10.93;;;16.50;99.90;;;;;;4150402;28;20140;-83
2022/09/10 08:48:16;;;;;;;21.30;10.82;;;16.50;99.90;;;;;;4150835;28;20053;-83
2022/09/10 08:50:42;;;;;;;22.48;10.82;;;16.50;99.90;;;;;;4150630;28;20049;-83
2022/09/10 08:52:48;;;;;;;22.70;10.40;;;16.50;99.90;;;;;;4150840;28;20439;-83
2022/09/10 08:55:18;;;;;;;22.35;11.48;;;16.50;99.90;;;;;;4150682;28;20458;-83
2022/09/10 08:57:30;;;;;;;25.40;12.02;;;16.60;99.90;;;;;;4143449;28;20046;-84
2022/09/10 08:59:35;;;;;;;21.42;10.40;;;16.60;99.90;;;;;;4133191;28;20054;-84
2022/09/10 09:01:42;;;;;;;25.95;11.25;;;16.70;99.90;;;;;;4150546;28;20515;-83
2022/09/10 09:03:46;;;;;;;20.80;10.85;;;16.80;99.90;;;;;;4150563;28;20069;-83
2022/09/10 09:05:59;;;;;;;26.08;11.02;;;16.80;99.90;;;;;;4150089;28;20419;-83
2022/09/10 09:08:00;;;;;;;23.88;10.90;;;16.90;99.90;;;;;;4133556;28;20048;-83
2022/09/10 09:10:02;;;;;;;26.20;10.90;;;16.90;99.90;;;;;;4132752;28;20077;-83
2022/09/10 09:12:35;;;;;;;21.35;11.10;;;17.00;99.90;;;;;;4133004;28;20060;-83
2022/09/10 09:14:58;;;;;;;21.77;10.75;;;17.00;99.90;;;;;;4150361;28;20041;-83
2022/09/10 09:17:05;;;;;;;25.83;11.13;;;17.00;99.90;;;;;;4150356;28;20080;-83
2022/09/10 09:19:33;;;;;;;21.38;10.25;;;17.00;99.90;;;;;;4150126;28;20046;-83
2022/09/10 09:21:47;;;;;;;18.88;9.45;;;17.10;99.90;;;;;;4127666;28;20054;-83
2022/09/10 09:23:57;;;;;;;19.15;10.20;;;17.10;99.90;;;;;;4150341;28;20119;-83
2022/09/10 09:26:13;;;;;;;24.52;10.88;;;17.10;99.90;;;;;;4150415;28;20077;-84
2022/09/10 09:28:30;;;;;;;25.88;10.07;;;17.20;99.90;;;;;;4149736;28;20042;-83
2022/09/10 09:30:40;;;;;;;22.67;10.27;;;17.20;99.90;;;;;;4132610;28;20094;-83
2022/09/10 09:32:45;;;;;;;17.55;9.43;;;17.20;99.90;;;;;;4149961;28;20427;-83
2022/09/10 09:34:51;;;;;;;16.08;9.85;;;17.30;99.90;;;;;;4132713;28;20042;-83
2022/09/10 09:36:53;;;;;;;17.45;9.15;;;17.30;99.90;;;;;;4149575;28;20499;-84
2022/09/10 09:38:55;;;;;;;19.30;9.00;;;17.30;99.90;;;;;;4149784;28;20132;-83
2022/09/10 09:40:59;;;;;;;15.98;8.85;;;17.20;99.90;;;;;;4150051;28;20125;-83
2022/09/10 09:43:15;;;;;;;19.60;8.70;;;17.20;99.90;;;;;;4149481;28;20092;-83
2022/09/10 09:45:42;;;;;;;17.75;8.65;;;17.30;99.90;;;;;;4149027;28;20139;-83
2022/09/10 09:47:46;;;;;;;14.93;7.38;;;17.30;99.90;;;;;;4149927;28;20084;-83
2022/09/10 09:49:46;;;;;;;19.20;8.20;;;17.40;99.90;;;;;;4149884;28;20050;-83
2022/09/10 09:51:48;;;;;;;19.67;9.25;;;17.40;99.90;;;;;;4149488;28;20042;-83
2022/09/10 09:53:53;;;;;;;19.17;9.23;;;17.40;99.90;;;;;;4149587;28;20057;-83
2022/09/10 09:55:57;;;;;;;24.77;10.10;;;17.40;99.90;;;;;;4150467;28;20046;-84
2022/09/10 09:58:19;;;;;;;21.10;10.20;;;17.40;99.90;;;;;;4149260;28;20053;-83
2022/09/10 10:00:36;;;;;;;20.90;10.45;;;17.40;99.90;;;;;;4149721;28;20050;-83
2022/09/10 10:02:37;;;;;;;18.42;9.10;;;17.40;99.90;;;;;;4149965;28;20038;-83
2022/09/10 10:04:59;;;;;;;19.20;9.55;;;17.40;99.90;;;;;;4149629;28;20042;-83
2022/09/10 10:07:01;;;;;;;18.73;9.50;;;17.40;99.90;;;;;;4149540;28;20100;-83
2022/09/10 10:09:05;;;;;;;21.55;10.05;;;17.50;99.90;;;;;;4149064;28;20041;-83
2022/09/10 10:11:07;;;;;;;19.88;9.70;;;17.50;99.90;;;;;;4149508;28;20049;-83
2022/09/10 10:13:20;;;;;;;16.77;8.02;;;17.60;99.90;;;;;;4149413;28;20092;-83
2022/09/10 10:15:40;;;;;;;14.63;8.32;;;17.60;99.90;;;;;;4149365;28;20532;-83
2022/09/10 10:17:42;;;;;;;14.38;7.43;;;17.60;99.90;;;;;;4149456;28;20073;-83
2022/09/10 10:19:54;;;;;;;16.52;8.30;;;17.70;99.90;;;;;;4149352;28;20480;-83
2022/09/10 10:21:57;;;;;;;16.85;8.93;;;17.70;99.90;;;;;;4149100;28;20100;-83
2022/09/10 10:23:59;;;;;;;18.67;8.43;;;17.70;99.90;;;;;;4148955;28;20077;-83
2022/09/10 10:26:25;;;;;;;15.13;8.25;;;17.80;99.90;;;;;;4148823;28;20050;-83
2022/09/10 10:28:26;;;;;;;17.48;9.00;;;17.80;99.90;;;;;;4148508;28;20053;-82
2022/09/10 10:30:30;;;;;;;15.38;8.00;;;17.80;99.90;;;;;;4148299;28;20057;-83
2022/09/10 10:32:46;;;;;;;16.08;8.90;;;17.80;99.90;;;;;;4148432;28;20040;-83